
Distance (Route):
Temperature : 1.1°C
Humidity : 86.2%
Pressure : 743.1hPa| Receiver | Date | Latitude | Longitude | Direction | Speed | Altitude | Climb | Temperature | Humidity | Pressure | Voltage | Killtimer | Uptime | BKT | XDATA |
|---|---|---|---|---|---|---|---|---|---|---|---|---|---|---|---|
| SP3WXH-11 | 2026-09-01 10:34:12 | 54.51059 | 17.04712 | 100° | 37km/h | 2602m | -10.4m/s | 1.1°C | 86.2% | 743.1hPa | 0V | 00:00:00 | 00:00:00 | 00:00:00 | |
| SP3WXH-11 | 2026-09-01 10:33:41 | 54.51098 | 17.04353 | 103° | 35km/h | 2847m | -10.6m/s | -0.4°C | 89.2% | 720.6hPa | 0V | 00:00:00 | 00:00:00 | 00:00:00 | |
| SP3WXH-11 | 2026-09-01 10:33:10 | 54.51152 | 17.03881 | 105° | 35km/h | 3169m | -10.6m/s | -1.8°C | 69.1% | 691.8hPa | 0V | 00:00:00 | 00:00:00 | 00:00:00 | |
| SP3BTT-10 | 2026-09-01 10:32:21 | 54.51297 | 17.03213 | 117° | 35km/h | 3685m | -11.1m/s | 0°C | 0% | 0hPa | 0V | 00:00:00 | 00:00:00 | 00:00:00 | |
| SP3WXH-11 | 2026-09-01 10:32:08 | 54.51348 | 17.03015 | 112° | 37km/h | 3844m | -12.0m/s | -5.2°C | 65.1% | 634.4hPa | 0V | 00:00:00 | 00:00:00 | 00:00:00 | |
| SP3WXH-11 | 2026-09-01 10:31:37 | 54.51449 | 17.02540 | 107° | 38km/h | 4200m | -11.8m/s | -7.7°C | 59.4% | 605.7hPa | 0V | 00:00:00 | 00:00:00 | 00:00:00 | |
| SP3WXH-11 | 2026-09-01 10:31:06 | 54.51586 | 17.02047 | 121° | 42km/h | 4608m | -13.9m/s | -9.9°C | 75.8% | 574.4hPa | 0V | 00:00:00 | 00:00:00 | 00:00:00 | |
| SP3BTT-10 | 2026-09-01 10:30:51 | 54.51652 | 17.01825 | 112° | 42km/h | 4804m | -14.4m/s | 0°C | 0% | 0hPa | 0V | 00:00:00 | 00:00:00 | 00:00:00 | |
| SP3WXH-11 | 2026-09-01 10:30:35 | 54.51715 | 17.01604 | 112° | 31km/h | 5041m | -13.6m/s | -12.7°C | 85.2% | 542.8hPa | 0V | 00:00:00 | 00:00:00 | 00:00:00 | |
| SP3WXH-11 | 2026-09-01 10:30:04 | 54.51832 | 17.01176 | 105° | 33km/h | 5482m | -10.4m/s | -15.7°C | 55.5% | 512.0hPa | 0V | 00:00:00 | 00:00:00 | 00:00:00 | |
| SP3WXH-11 | 2026-09-01 10:29:33 | 54.52010 | 17.00632 | 106° | 55km/h | 5902m | -14.4m/s | -18.6°C | 48.1% | 483.5hPa | 0V | 00:00:00 | 00:00:00 | 00:00:00 | |
| SP3WXH-11 | 2026-09-01 10:29:02 | 54.52173 | 17.00045 | 112° | 49km/h | 6386m | -13.5m/s | -22.1°C | 40.5% | 453.4hPa | 0V | 00:00:00 | 00:00:00 | 00:00:00 | |
| SP3BTT-10 | 2026-09-01 10:28:43 | 54.52262 | 16.99755 | 116° | 42km/h | 6667m | -15.2m/s | 0°C | 0% | 0hPa | 0V | 00:00:00 | 00:00:00 | 00:00:00 | |
| SP3WXH-11 | 2026-09-01 10:28:31 | 54.52322 | 16.99551 | 112° | 40km/h | 6881m | -16.4m/s | -26.2°C | 40.1% | 422.9hPa | 0V | 00:00:00 | 00:00:00 | 00:00:00 | |
| SP3BTT-10 | 2026-09-01 10:28:13 | 54.52385 | 16.99243 | 109° | 46km/h | 7154m | -16.3m/s | 0°C | 0% | 0hPa | 0V | 00:00:00 | 00:00:00 | 00:00:00 | |
| SP3WXH-11 | 2026-09-01 10:28:00 | 54.52444 | 16.98959 | 102° | 57km/h | 7132m | 0.9m/s | -28.3°C | 39.7% | 408.1hPa | 0V | 00:00:00 | 00:00:00 | 00:00:00 | |
| SP3WXH-11 | 2026-09-01 10:27:29 | 54.52560 | 16.98397 | 94° | 44km/h | 6962m | 1.2m/s | -26.8°C | 35.0% | 417.9hPa | 0V | 00:00:00 | 00:00:00 | 00:00:00 | |
| SP3BTT-10 | 2026-09-01 10:27:05 | 54.52645 | 16.97999 | 111° | 44km/h | 6847m | 3.0m/s | 0°C | 0% | 0hPa | 0V | 00:00:00 | 00:00:00 | 00:00:00 | |
| SP3WXH-11 | 2026-09-01 10:26:58 | 54.52683 | 16.97874 | 130° | 46km/h | 6811m | 4.4m/s | -25.4°C | 32.2% | 426.9hPa | 0V | 00:00:00 | 00:00:00 | 00:00:00 | |
| SP3WXH-11 | 2026-09-01 10:26:27 | 54.52825 | 16.97393 | 110° | 33km/h | 6649m | 7.8m/s | -24.0°C | 32.3% | 436.8hPa | 0V | 00:00:00 | 00:00:00 | 00:00:00 | |
| SP3WXH-11 | 2026-09-01 10:25:56 | 54.52975 | 16.96907 | 103° | 55km/h | 6500m | 4.8m/s | -22.9°C | 34.7% | 446.0hPa | 0V | 00:00:00 | 00:00:00 | 00:00:00 | |
| SP3WXH-11 | 2026-09-01 10:25:25 | 54.53137 | 16.96369 | 140° | 35km/h | 6347m | 1.2m/s | -21.6°C | 35.3% | 455.6hPa | 0V | 00:00:00 | 00:00:00 | 00:00:00 | |
| SP3WXH-11 | 2026-09-01 10:24:53 | 54.53312 | 16.95814 | 117° | 57km/h | 6186m | 4.9m/s | -20.2°C | 35.0% | 465.0hPa | 0V | 00:00:00 | 00:00:00 | 00:00:00 | |
| SP3BTT-10 | 2026-09-01 10:24:43 | 54.53366 | 16.95625 | 100° | 46km/h | 6141m | 2.8m/s | 0°C | 0% | 0hPa | 0V | 00:00:00 | 00:00:00 | 00:00:00 | |
| SP3WXH-11 | 2026-09-01 10:24:22 | 54.53492 | 16.95217 | 120° | 53km/h | 6056m | 9.5m/s | -19.4°C | 35.5% | 474.5hPa | 0V | 00:00:00 | 00:00:00 | 00:00:00 | |
| SP3WXH-11 | 2026-09-01 10:23:51 | 54.53674 | 16.94612 | 112° | 37km/h | 5891m | 5.9m/s | -18.3°C | 45.8% | 484.5hPa | 0V | 00:00:00 | 00:00:00 | 00:00:00 | |
| SP3WXH-11 | 2026-09-01 10:23:20 | 54.53855 | 16.94042 | 110° | 55km/h | 5741m | 6.6m/s | -17.3°C | 44.2% | 494.4hPa | 0V | 00:00:00 | 00:00:00 | 00:00:00 | |
| SP3WXH-11 | 2026-09-01 10:22:49 | 54.54043 | 16.93523 | 141° | 47km/h | 5601m | 4.4m/s | -16.1°C | 46.1% | 504.1hPa | 0V | 00:00:00 | 00:00:00 | 00:00:00 | |
| SP3WXH-11 | 2026-09-01 10:22:18 | 54.54225 | 16.93064 | 139° | 40km/h | 5453m | 5.0m/s | -15.4°C | 52.1% | 514.1hPa | 0V | 00:00:00 | 00:00:00 | 00:00:00 | |
| SP3BTT-10 | 2026-09-01 10:18:55 | 54.55169 | 16.90244 | 99° | 42km/h | 4434m | 1.9m/s | 0°C | 0% | 0hPa | 0V | 00:00:00 | 00:00:00 | 00:00:00 |